• Join FlightAware (Why Join?)
  • Login
  • US Flag 
10:12PM EDT


 

Airport Tracker/Info


-or-


 

Live Flight TrackerFlight Track Log ✈ AWE3417 ✈ 14-Apr-2013 ✈ KMHT - KDCA

Flight Track Log - Related Links

Times and Time Zones

All times are in EDT time to prevent confusion due to time zone crossing. See the AWE3417 flight status page for this flight to view local times or setup timezone preferences in your user account.

Time Position Orientation Groundspeed Altitude Reporting Facility
EDT Latitude Longitude Course Direction KTS MPH feet Rate Location/Type
05:17PM 42.9500 -71.4333 202° Southwest 143 165 1,100  Level KA90
05:17PM 42.9500 -71.4500 270° West 146 168 1,600 1,980 Climbing KA90
05:18PM 43.0167 -71.4667 350° North 218 251 3,900 2,160 Climbing KA90
05:19PM 43.0563 -71.0812 65° Northeast  Level FlightAware Approximate
05:19PM 43.0353 -71.3806 74° East 276 318 6,200  Level Boston Center
05:20PM 43.0678 -70.9600 132° Southeast  Level FlightAware Approximate
05:20PM 43.0467 -71.2753 82° East 303 349 9,200  Level Boston Center
05:21PM 42.9910 -70.8743 144° Southeast  Level FlightAware Approximate
05:21PM 43.0539 -71.1728 84° East 297 342 10,800  Level Boston Center
05:22PM 42.8999 -70.9131 202° Southwest  Level FlightAware Approximate
05:22PM 43.0775 -71.0386 76° East 314 361 13,100  Level Boston Center
05:23PM 43.0364 -70.9344 118° Southeast 322 371 14,800 1,980 Climbing Boston Center
05:24PM 42.9361 -70.9086 169° South 293 337 17,000 1,920 Climbing Boston Center
05:25PM 42.8533 -70.9503 200° South 303 349 18,600 1,620 Climbing Boston Center
05:26PM 42.7622 -70.9922 199° South 328 377 20,300 1,560 Climbing Boston Center
05:27PM 42.6689 -71.0394 200° South 349 402 21,800 1,380 Climbing Boston Center
05:28PM 42.5694 -71.0897 200° South 369 425 23,400 1,380 Climbing Boston Center
05:29PM 42.4536 -71.1486 201° Southwest 374 430 24,900 1,320 Climbing Boston Center
05:30PM 42.3942 -71.2481 231° Southwest 358 412 26,000 540 Climbing Boston Center
05:31PM 42.3600 -71.3639 248° West 340 391 26,000  Level Boston Center
05:32PM 42.3233 -71.4797 247° West 340 391 26,000  Level Boston Center
05:33PM 42.2847 -71.5953 246° West 335 386 26,000  Level Boston Center
05:34PM 42.2481 -71.7081 246° West 340 391 26,000  Level Boston Center
05:35PM 42.2133 -71.8206 247° West 340 391 26,000  Level Boston Center
05:36PM 42.1806 -71.9331 249° West 340 391 26,000  Level Boston Center
05:37PM 42.1456 -72.0425 247° West 335 386 26,000  Level Boston Center
05:38PM 42.1103 -72.1575 248° West 335 386 26,000  Level Boston Center
05:39PM 42.0731 -72.2667 245° Southwest 335 386 26,000  Level Boston Center
05:40PM 42.0378 -72.3786 247° West 335 386 26,000  Level Boston Center
05:41PM 42.0044 -72.4931 249° West 335 386 26,000  Level Boston Center
05:42PM 41.9689 -72.6047 247° West 335 386 26,000  Level Boston Center
05:43PM 41.9292 -72.7053 242° Southwest 329 379 26,000  Level Boston Center
05:44PM 41.8475 -72.8164 225° Southwest 335 386 26,000  Level Boston Center
05:45PM 41.7761 -72.9161 226° Southwest 357 411 26,000  Level Boston Center
05:46PM 41.7194 -73.0158 233° Southwest 362 417 26,000  Level Boston Center
05:47PM 41.7086 -73.1103 261° West 342 394 26,000  Level Boston Center
05:48PM 41.6994 -73.2519 265° West 322 371 26,000  Level Boston Center
05:50PM 41.6181 -73.4711 244° Southwest 328 377 26,000  Level New York Center
05:51PM 41.5494 -73.5514 221° Southwest 344 396 26,000  Level New York Center
05:52PM 41.4725 -73.6369 220° Southwest 355 409 26,000  Level New York Center
05:53PM 41.3933 -73.7275 221° Southwest 368 423 26,000  Level New York Center
05:54PM 41.3161 -73.8153 221° Southwest 373 429 26,000  Level New York Center
05:55PM 41.2367 -73.9053 220° Southwest 379 436 26,000  Level New York Center
05:56PM 41.1594 -73.9928 220° Southwest 379 436 26,000  Level New York Center
05:57PM 41.0797 -74.0797 219° Southwest 374 430 26,000  Level New York Center
05:58PM 41.0003 -74.1692 220° Southwest 374 430 26,000  Level New York Center
05:59PM 40.9142 -74.2639 220° Southwest 374 430 26,000  Level New York Center
06:00PM 40.8322 -74.3528 219° Southwest 374 430 26,000  Level New York Center
06:01PM 40.7608 -74.4450 224° Southwest 368 423 26,000  Level New York Center
06:02PM 40.6992 -74.5456 231° Southwest 361 415 26,000 -60 Level New York Center
06:03PM 40.6394 -74.6517 233° Southwest 361 415 25,900 -840 Descending New York Center
06:04PM 40.5758 -74.7519 230° Southwest 361 415 24,400 -1,440 Descending New York Center
06:05PM 40.5119 -74.8467 228° Southwest 361 415 23,000 -1,200 Descending New York Center
06:06PM 40.4464 -74.9356 226° Southwest 355 409 22,000 -540 Descending New York Center
06:07PM 40.3892 -75.0192 228° Southwest 348 400 22,000  Level New York Center
06:08PM 40.3233 -75.1103 227° Southwest 348 400 22,000  Level New York Center
06:09PM 40.2575 -75.2014 227° Southwest 348 400 22,000  Level New York Center
06:10PM 40.1917 -75.2922 227° Southwest 348 400 22,000  Level New York Center
06:11PM 40.1275 -75.3858 228° Southwest 348 400 22,000  Level New York Center
06:12PM 40.0614 -75.4764 226° Southwest 348 400 22,000  Level New York Center
06:13PM 39.9950 -75.5694 227° Southwest 348 400 22,000  Level New York Center
06:14PM 39.9286 -75.6653 228° Southwest 353 406 22,000 -240 Level New York Center
06:15PM 39.8703 -75.7611 232° Southwest 353 406 21,600 -1,020 Descending New York Center
06:16PM 39.8100 -75.8569 231° Southwest 348 400 20,000 -1,680 Descending New York Center
06:17PM 39.7431 -75.9547 228° Southwest 342 394 18,400 -1,440 Descending New York Center
06:18PM 39.6892 -76.0425 231° Southwest 325 374 17,200 -1,380 Descending New York Center
06:19PM 39.6308 -76.1350 231° Southwest 330 380 15,700 -1,560 Descending New York Center
06:20PM 39.5789 -76.2200 232° Southwest 330 380 14,200 -1,500 Descending New York Center
06:21PM 39.5167 -76.3167 230° Southwest 301 346 12,700 -1,080 Descending Potomac TRACON
06:22PM 39.4667 -76.4000 232° Southwest 303 349 12,000 -360 Descending Potomac TRACON
06:23PM 39.4000 -76.4667 218° Southwest 311 358 12,000 -600 Level Potomac TRACON
06:24PM 39.3333 -76.5333 218° Southwest 313 360 10,800 -1,020 Descending Potomac TRACON
06:25PM 39.2500 -76.5833 205° Southwest 294 338 10,000 -420 Descending Potomac TRACON
06:26PM 39.1833 -76.6500 218° Southwest 284 327 10,000  Level Potomac TRACON
06:28PM 39.1167 -76.7167 218° Southwest 275 316 10,000 -300 Level Potomac TRACON
06:28PM 39.0667 -76.7833 226° Southwest 275 316 9,500 -1,200 Descending Potomac TRACON
06:30PM 39.0167 -76.8500 226° Southwest 263 303 7,700 -1,620 Descending Potomac TRACON
06:31PM 38.9500 -76.9167 218° Southwest 254 292 6,100 -1,200 Descending Potomac TRACON
06:32PM 38.8833 -76.9500 201° Southwest 262 302 5,300 -1,440 Descending Potomac TRACON
06:33PM 38.8167 -76.9500 180° South 265 305 3,200 -1,680 Descending Potomac TRACON
06:33PM 38.7500 -76.9500 180° South 252 290 2,100 -780 Descending Potomac TRACON
06:34PM 38.7333 -77.0167 252° West 195 224 1,800 -300 Descending Potomac TRACON